createdAt,value
2023-02-11T00:06:00.844Z,98662.78
2023-02-11T00:16:08.149Z,98651.94
2023-02-11T00:26:36.655Z,98644.31
2023-02-11T00:36:39.115Z,98629.66
2023-02-11T00:46:41.538Z,98624.94
2023-02-11T00:56:43.770Z,98609.38
2023-02-11T01:06:46.023Z,98626.41
2023-02-11T01:16:48.219Z,98613.38
2023-02-11T01:26:50.474Z,98598.38
2023-02-11T01:36:57.946Z,98598.09
2023-02-11T01:47:00.633Z,98585.91
2023-02-11T01:57:22.279Z,98569.56
2023-02-11T02:08:05.620Z,98524.19
2023-02-11T02:18:10.449Z,98529.47
2023-02-11T02:28:45.731Z,98547.69
2023-02-11T02:39:04.392Z,98544.66
2023-02-11T02:49:12.489Z,98507.38
2023-02-11T02:59:34.128Z,98470.75
2023-02-11T03:09:55.105Z,98456.63
2023-02-11T03:20:00.138Z,98432.59
2023-02-11T03:30:08.644Z,98437.50
2023-02-11T03:40:21.282Z,98421.44
2023-02-11T03:50:26.398Z,98394.47
2023-02-11T04:00:34.745Z,98417.03
2023-02-11T04:10:37.349Z,98403.16
2023-02-11T04:20:39.693Z,98420.38
2023-02-11T04:30:41.936Z,98430.59
2023-02-11T04:40:44.190Z,98421.41
2023-02-11T04:50:46.362Z,98384.34
2023-02-11T06:05:10.499Z,98407.91
2023-02-11T06:15:12.723Z,98384.59
2023-02-11T06:25:15.196Z,98369.78
2023-02-11T06:35:17.424Z,98380.53
2023-02-11T06:45:20.968Z,98406.41
2023-02-11T06:55:23.208Z,98405.81
2023-02-11T07:05:25.682Z,98408.16
2023-02-11T07:15:27.989Z,98395.16
2023-02-11T07:25:30.306Z,98376.88
2023-02-11T07:35:32.486Z,98374.25
2023-02-11T07:45:34.777Z,98366.69
2023-02-11T07:55:37.017Z,98348.28
2023-02-11T08:05:39.353Z,98359.41
2023-02-11T08:15:41.513Z,98343.56
2023-02-11T08:25:43.743Z,98374.78
2023-02-11T08:35:46.002Z,98380.81
2023-02-11T08:45:48.698Z,98390.94
2023-02-11T08:55:55.544Z,98376.44
2023-02-11T09:05:57.890Z,98338.88
2023-02-11T09:16:02.036Z,98335.78
2023-02-11T09:26:09.709Z,98377.09
2023-02-11T09:36:12.014Z,98369.19
2023-02-11T09:46:17.260Z,98361.38
2023-02-11T09:56:19.546Z,98334.31
2023-02-11T10:06:24.530Z,98310.00
2023-02-11T10:16:43.302Z,98306.59
2023-02-11T10:26:46.450Z,98305.00
2023-02-11T10:36:48.849Z,98305.31
2023-02-11T10:46:52.272Z,98334.63
2023-02-11T10:57:00.463Z,98328.06
2023-02-11T11:07:21.981Z,98347.00
2023-02-11T11:17:24.466Z,98310.88
2023-02-11T11:27:26.880Z,98312.03
2023-02-11T11:37:31.987Z,98287.50
2023-02-11T11:47:45.118Z,98314.00
2023-02-11T11:57:48.106Z,98316.78
2023-02-11T12:08:27.899Z,98301.25
2023-02-11T12:19:04.978Z,98317.88
2023-02-11T12:29:37.188Z,98309.34
2023-02-11T12:40:13.114Z,98273.34
2023-02-11T12:50:21.394Z,98266.06
2023-02-11T13:00:29.715Z,98250.94
2023-02-11T13:10:36.222Z,98253.25
2023-02-11T13:20:52.108Z,98248.53
2023-02-11T13:31:02.825Z,98296.81
2023-02-11T13:41:28.912Z,98322.78
2023-02-11T13:51:38.395Z,98315.44
2023-02-11T14:02:08.175Z,98313.31
2023-02-11T14:12:21.764Z,98298.84
2023-02-11T14:22:39.944Z,98308.66
2023-02-11T14:33:06.770Z,98307.44
2023-02-11T14:43:16.922Z,98313.63
2023-02-11T14:53:23.651Z,98322.28
2023-02-11T15:03:33.236Z,98334.03
2023-02-11T15:13:35.556Z,98327.22
2023-02-11T15:23:39.073Z,98317.50
2023-02-11T15:33:42.256Z,98323.94
2023-02-11T15:43:51.184Z,98314.81
2023-02-11T15:53:57.182Z,98332.03
2023-02-11T16:04:00.271Z,98326.44
2023-02-11T16:14:19.494Z,98359.44
2023-02-11T16:24:29.157Z,98362.75
2023-02-11T16:34:31.361Z,98378.72
2023-02-11T16:44:34.613Z,98406.97
2023-02-11T16:54:36.846Z,98409.69
2023-02-11T17:04:39.198Z,98424.84
2023-02-11T17:14:41.488Z,98428.56
2023-02-11T17:24:43.734Z,98462.94
2023-02-11T17:34:46.030Z,98466.28
2023-02-11T17:44:48.297Z,98454.47
2023-02-11T17:54:50.531Z,98464.41
2023-02-11T18:04:53.432Z,98462.13
2023-02-11T18:14:58.044Z,98479.91
2023-02-11T18:25:00.585Z,98483.41
2023-02-11T18:35:02.763Z,98482.59
2023-02-11T18:45:09.522Z,98493.59
2023-02-11T18:55:11.760Z,98509.09
2023-02-11T19:05:14.004Z,98517.66
2023-02-11T19:15:16.349Z,98525.78
2023-02-11T19:25:19.023Z,98525.34
2023-02-11T19:35:21.306Z,98527.34
2023-02-11T19:45:23.583Z,98550.66
2023-02-11T19:55:25.825Z,98567.66
2023-02-11T20:05:28.117Z,98587.75
2023-02-11T20:15:30.339Z,98600.84
2023-02-11T20:25:32.601Z,98594.41
2023-02-11T20:35:34.790Z,98602.13
2023-02-11T20:45:37.130Z,98613.09
2023-02-11T20:55:39.564Z,98620.56
2023-02-11T21:05:41.736Z,98643.38
2023-02-11T21:15:44.044Z,98646.06
2023-02-11T21:25:46.482Z,98657.47
2023-02-11T21:40:11.494Z,98665.97
2023-02-11T21:50:13.758Z,98664.72
2023-02-11T22:00:16.736Z,98669.06
2023-02-11T22:10:19.779Z,98692.72
2023-02-11T22:20:22.147Z,98703.69
2023-02-11T22:30:24.416Z,98706.81
2023-02-11T22:40:26.690Z,98729.41
2023-02-11T22:50:28.889Z,98752.84
2023-02-11T23:00:35.480Z,98750.38
2023-02-11T23:10:39.273Z,98761.34
2023-02-11T23:20:43.624Z,98770.03
2023-02-11T23:30:45.801Z,98755.31
2023-02-11T23:40:47.986Z,98763.41
2023-02-11T23:50:50.158Z,98763.63
